createdAt,value
2018-02-01T00:01:28.251Z,92573.38
2018-02-01T00:03:54.818Z,92581.12
2018-02-01T00:06:22.183Z,92579.16
2018-02-01T00:08:48.760Z,92577.83
2018-02-01T00:11:15.409Z,92577.72
2018-02-01T00:13:42.026Z,92575.09
2018-02-01T00:16:08.607Z,92570.03
2018-02-01T00:18:35.481Z,92572.31
2018-02-01T00:21:02.138Z,92569.14
2018-02-01T00:23:28.742Z,92566.04
2018-02-01T00:25:55.498Z,92567.12
2018-02-01T00:28:22.074Z,92563.14
2018-02-01T00:30:48.692Z,92565.46
2018-02-01T00:33:15.293Z,92564.13
2018-02-01T00:35:41.945Z,92559.59
2018-02-01T00:38:08.595Z,92554.75
2018-02-01T00:40:35.269Z,92554.22
2018-02-01T00:43:01.877Z,92550.36
2018-02-01T00:45:28.575Z,92551.25
2018-02-01T00:47:55.231Z,92548.80
2018-02-01T00:50:21.850Z,92543.99
2018-02-01T00:52:49.226Z,92542.16
2018-02-01T00:55:15.836Z,92543.87
2018-02-01T00:57:42.438Z,92544.28
2018-02-01T01:00:09.154Z,92542.52
2018-02-01T01:02:35.756Z,92540.64
2018-02-01T01:05:03.161Z,92536.34
2018-02-01T01:07:29.778Z,92531.00
2018-02-01T01:09:56.343Z,92543.20
2018-02-01T01:12:22.937Z,92543.95
2018-02-01T01:14:49.564Z,92538.92
2018-02-01T01:17:16.966Z,92535.70
2018-02-01T01:19:44.325Z,92535.03
2018-02-01T01:22:10.890Z,92533.81
2018-02-01T01:24:37.504Z,92537.91
2018-02-01T01:27:04.142Z,92541.76
2018-02-01T01:29:31.514Z,92545.97
2018-02-01T01:31:58.143Z,92542.16
2018-02-01T01:34:24.769Z,92545.42
2018-02-01T01:36:51.415Z,92552.66
2018-02-01T01:39:18.010Z,92554.86
2018-02-01T01:41:44.614Z,92550.25
2018-02-01T01:44:12.000Z,92552.84
2018-02-01T01:46:38.751Z,92552.66
2018-02-01T01:49:05.333Z,92560.11
2018-02-01T01:51:31.977Z,92555.66
2018-02-01T01:53:58.702Z,92551.81
2018-02-01T01:56:25.339Z,92556.55
2018-02-01T01:58:51.966Z,92555.09
2018-02-01T02:01:18.542Z,92556.02
2018-02-01T02:03:45.178Z,92555.79
2018-02-01T02:06:11.801Z,92553.59
2018-02-01T02:08:38.393Z,92560.91
2018-02-01T02:11:04.989Z,92554.52
2018-02-01T02:13:31.633Z,92559.52
2018-02-01T02:15:58.994Z,92562.88
2018-02-01T02:18:25.558Z,92556.92
2018-02-01T02:20:52.289Z,92566.13
2018-02-01T02:23:18.944Z,92564.73
2018-02-01T02:25:45.577Z,92566.12
2018-02-01T02:28:12.200Z,92562.08
2018-02-01T02:30:38.819Z,92563.28
2018-02-01T02:33:05.422Z,92563.75
2018-02-01T02:35:32.034Z,92557.47
2018-02-01T02:37:58.597Z,92556.91
2018-02-01T02:40:25.986Z,92555.19
2018-02-01T02:42:52.631Z,92548.63
2018-02-01T02:45:19.205Z,92550.91
2018-02-01T02:47:45.784Z,92544.30
2018-02-01T02:50:13.139Z,92545.43
2018-02-01T02:52:39.767Z,92542.40
2018-02-01T02:55:06.421Z,92533.88
2018-02-01T02:57:33.724Z,92534.95
2018-02-01T03:00:00.326Z,92536.27
2018-02-01T03:02:26.934Z,92531.00
2018-02-01T03:04:54.294Z,92525.59
2018-02-01T03:07:21.631Z,92522.56
2018-02-01T03:09:49.071Z,92522.02
2018-02-01T03:12:15.711Z,92512.60
2018-02-01T03:14:42.351Z,92508.48
2018-02-01T03:17:08.999Z,92513.20
2018-02-01T03:19:35.590Z,92510.27
2018-02-01T03:22:02.219Z,92509.05
2018-02-01T03:24:28.819Z,92508.41
2018-02-01T03:26:56.139Z,92504.37
2018-02-01T03:29:22.746Z,92502.18
2018-02-01T03:31:49.358Z,92509.41
2018-02-01T03:34:15.974Z,92506.55
2018-02-01T03:36:43.398Z,92508.50
2018-02-01T03:39:09.950Z,92503.66
2018-02-01T03:41:36.551Z,92490.46
2018-02-01T03:44:03.148Z,92495.52
2018-02-01T03:46:30.491Z,92490.73
2018-02-01T03:48:57.099Z,92485.10
2018-02-01T03:51:23.699Z,92487.87
2018-02-01T03:53:50.303Z,92479.75
2018-02-01T03:56:16.938Z,92483.94
2018-02-01T03:58:43.499Z,92482.33
2018-02-01T04:01:10.098Z,92479.20
2018-02-01T04:03:36.809Z,92472.94
2018-02-01T04:06:04.151Z,92473.41
2018-02-01T04:08:30.730Z,92474.50
2018-02-01T04:10:57.355Z,92470.19
2018-02-01T04:13:23.946Z,92475.63
2018-02-01T04:15:50.684Z,92470.27
2018-02-01T04:18:17.342Z,92475.95
2018-02-01T04:20:43.935Z,92469.45
2018-02-01T04:23:10.530Z,92474.98
2018-02-01T04:25:37.134Z,92468.49
2018-02-01T04:28:04.434Z,92458.52
2018-02-01T04:30:31.033Z,92456.25
2018-02-01T04:32:57.651Z,92465.34
2018-02-01T04:35:24.950Z,92454.97
2018-02-01T04:37:51.566Z,92453.52
2018-02-01T04:40:18.219Z,92457.98
2018-02-01T04:42:44.823Z,92463.29
2018-02-01T04:45:11.463Z,92454.46
2018-02-01T04:47:38.839Z,92454.25
2018-02-01T04:50:05.439Z,92455.04
2018-02-01T04:52:32.748Z,92457.98
2018-02-01T04:54:59.357Z,92459.28
2018-02-01T04:57:25.939Z,92462.52
2018-02-01T04:59:52.584Z,92460.22
2018-02-01T05:02:19.160Z,92461.25
2018-02-01T05:04:45.880Z,92451.82
2018-02-01T05:07:13.249Z,92444.45
2018-02-01T05:09:39.848Z,92442.34
2018-02-01T05:12:06.429Z,92446.53
2018-02-01T05:14:32.994Z,92447.26
2018-02-01T05:16:59.668Z,92448.06
2018-02-01T05:19:26.283Z,92455.28
2018-02-01T05:21:52.885Z,92456.20
2018-02-01T05:24:19.450Z,92449.64
2018-02-01T05:26:46.070Z,92455.06
2018-02-01T05:29:12.665Z,92450.77
2018-02-01T05:31:39.994Z,92449.69
2018-02-01T05:34:07.423Z,92441.86
2018-02-01T05:36:34.044Z,92446.92
2018-02-01T05:39:00.643Z,92444.50
2018-02-01T05:41:27.981Z,92453.08
2018-02-01T05:43:54.591Z,92452.20
2018-02-01T05:46:21.179Z,92454.02
2018-02-01T05:48:48.525Z,92450.98
2018-02-01T05:51:15.878Z,92457.97
2018-02-01T05:53:42.543Z,92458.85
2018-02-01T05:56:09.101Z,92456.58
2018-02-01T05:58:36.014Z,92467.20
2018-02-01T06:01:03.526Z,92461.79
2018-02-01T06:03:30.133Z,92460.23
2018-02-01T06:05:56.747Z,92467.84
2018-02-01T06:08:23.375Z,92467.50
2018-02-01T06:10:50.807Z,92467.05
2018-02-01T06:13:18.185Z,92470.59
2018-02-01T06:15:44.834Z,92473.17
2018-02-01T06:18:11.480Z,92470.50
2018-02-01T06:20:38.068Z,92467.03
2018-02-01T06:23:04.706Z,92467.53
2018-02-01T06:25:31.394Z,92473.23
2018-02-01T06:27:58.003Z,92476.60
2018-02-01T06:30:24.703Z,92475.34
2018-02-01T06:32:51.281Z,92482.33
2018-02-01T06:35:18.630Z,92474.90
2018-02-01T06:37:45.237Z,92471.73
2018-02-01T06:40:11.862Z,92474.90
2018-02-01T06:42:38.785Z,92481.75
2018-02-01T06:45:05.442Z,92479.48
2018-02-01T06:47:32.028Z,92484.92
2018-02-01T06:49:58.641Z,92491.17
2018-02-01T06:52:25.226Z,92498.34
2018-02-01T06:54:51.848Z,92498.91
2018-02-01T06:57:19.198Z,92495.69
2018-02-01T06:59:46.556Z,92508.13
2018-02-01T07:02:13.910Z,92497.80
2018-02-01T07:04:41.310Z,92504.44
2018-02-01T07:07:07.898Z,92514.06
2018-02-01T07:09:34.498Z,92515.44
2018-02-01T07:12:01.079Z,92519.03
2018-02-01T07:14:27.786Z,92517.25
2018-02-01T07:16:55.148Z,92516.87
2018-02-01T07:19:22.496Z,92520.73
2018-02-01T07:21:49.855Z,92531.18
2018-02-01T07:24:16.423Z,92530.87
2018-02-01T07:26:43.049Z,92522.28
2018-02-01T07:29:09.669Z,92528.10
2018-02-01T07:31:36.990Z,92533.10
2018-02-01T07:34:03.652Z,92528.06
2018-02-01T07:36:30.217Z,92531.34
2018-02-01T07:38:56.908Z,92528.44
2018-02-01T07:41:23.498Z,92530.91
2018-02-01T07:43:50.934Z,92535.56
2018-02-01T07:46:22.601Z,92540.52
2018-02-01T07:48:49.233Z,92539.84
2018-02-01T07:51:15.823Z,92542.63
2018-02-01T07:53:42.482Z,92547.33
2018-02-01T07:56:09.091Z,92535.48
2018-02-01T07:58:35.703Z,92534.79
2018-02-01T08:01:02.331Z,92537.83
2018-02-01T08:03:28.940Z,92534.79
2018-02-01T08:05:56.263Z,92528.25
2018-02-01T08:08:22.917Z,92547.08
2018-02-01T08:10:49.538Z,92549.46
2018-02-01T08:13:16.145Z,92553.73
2018-02-01T08:15:42.853Z,92562.79
2018-02-01T08:18:10.219Z,92558.90
2018-02-01T08:20:36.837Z,92555.14
2018-02-01T08:23:04.178Z,92557.17
2018-02-01T08:25:30.906Z,92565.64
2018-02-01T08:27:58.302Z,92567.13
2018-02-01T08:30:25.629Z,92570.20
2018-02-01T08:32:52.261Z,92577.72
2018-02-01T08:35:18.840Z,92589.94
2018-02-01T08:37:46.158Z,92588.97
2018-02-01T08:40:12.760Z,92594.78
2018-02-01T08:42:39.368Z,92600.94
2018-02-01T08:45:05.999Z,92609.55
2018-02-01T08:47:32.577Z,92601.88
2018-02-01T08:49:59.251Z,92605.33
2018-02-01T08:52:25.878Z,92598.08
2018-02-01T08:54:53.562Z,92606.66
2018-02-01T08:57:20.892Z,92598.42
2018-02-01T08:59:47.511Z,92613.48
2018-02-01T09:02:14.115Z,92616.30
2018-02-01T09:04:40.718Z,92599.22
2018-02-01T09:07:07.307Z,92602.95
2018-02-01T09:09:33.867Z,92591.45
2018-02-01T09:12:00.462Z,92602.18
2018-02-01T09:14:27.310Z,92600.73
2018-02-01T09:16:54.010Z,92607.94
2018-02-01T09:19:20.584Z,92602.73
2018-02-01T09:21:47.183Z,92600.31
2018-02-01T09:24:13.770Z,92601.97
2018-02-01T09:26:40.415Z,92608.02
2018-02-01T09:29:07.103Z,92610.05
2018-02-01T09:31:33.707Z,92611.83
2018-02-01T09:34:00.341Z,92610.88
2018-02-01T09:36:26.940Z,92611.48
2018-02-01T09:38:53.541Z,92611.31
2018-02-01T09:41:21.117Z,92612.44
2018-02-01T09:43:47.847Z,92616.78
2018-02-01T09:46:15.191Z,92618.11
2018-02-01T09:48:41.856Z,92613.27
2018-02-01T09:51:08.440Z,92618.77
2018-02-01T09:53:35.028Z,92618.45
2018-02-01T09:56:02.392Z,92621.38
2018-02-01T09:58:29.096Z,92617.66
2018-02-01T10:00:55.660Z,92618.08
2018-02-01T10:03:22.332Z,92621.65
2018-02-01T10:05:48.940Z,92626.30
2018-02-01T10:08:15.541Z,92620.73
2018-02-01T10:10:42.071Z,92624.11
2018-02-01T10:13:08.711Z,92618.38
2018-02-01T10:15:35.254Z,92622.69
2018-02-01T10:18:02.633Z,92618.05
2018-02-01T10:20:29.234Z,92619.78
2018-02-01T10:22:55.999Z,92622.19
2018-02-01T10:25:23.322Z,92634.39
2018-02-01T10:27:49.946Z,92624.39
2018-02-01T10:30:16.613Z,92623.59
2018-02-01T10:32:43.161Z,92629.56
2018-02-01T10:35:10.514Z,92626.42
2018-02-01T10:37:37.850Z,92619.97
2018-02-01T10:40:04.437Z,92628.77
2018-02-01T10:42:30.994Z,92625.70
2018-02-01T10:44:57.593Z,92632.02
2018-02-01T10:47:24.300Z,92625.64
2018-02-01T10:49:50.843Z,92621.08
2018-02-01T10:52:17.444Z,92615.33
2018-02-01T10:54:44.054Z,92613.77
2018-02-01T10:57:10.665Z,92606.57
2018-02-01T10:59:37.199Z,92602.10
2018-02-01T11:02:04.578Z,92602.51
2018-02-01T11:04:31.226Z,92601.23
2018-02-01T11:06:57.838Z,92599.98
2018-02-01T11:09:25.371Z,92594.39
2018-02-01T11:11:52.032Z,92589.11
2018-02-01T11:14:18.614Z,92595.04
2018-02-01T11:16:45.268Z,92581.97
2018-02-01T11:19:11.787Z,92583.02
2018-02-01T11:21:38.402Z,92580.34
2018-02-01T11:24:05.004Z,92582.30
2018-02-01T11:26:31.621Z,92588.25
2018-02-01T11:28:58.159Z,92586.67
2018-02-01T11:31:25.179Z,92588.75
2018-02-01T11:33:51.891Z,92595.78
2018-02-01T11:36:18.491Z,92595.61
2018-02-01T11:38:45.131Z,92601.19
2018-02-01T11:41:12.470Z,92596.76
2018-02-01T11:43:39.135Z,92590.66
2018-02-01T11:46:08.138Z,92591.64
2018-02-01T11:48:34.722Z,92576.08
2018-02-01T11:51:01.343Z,92571.09
2018-02-01T11:53:27.986Z,92579.06
2018-02-01T11:55:54.594Z,92575.91
2018-02-01T11:58:21.214Z,92562.63
2018-02-01T12:00:47.807Z,92569.40
2018-02-01T12:03:14.448Z,92568.74
2018-02-01T12:05:41.035Z,92568.05
2018-02-01T12:08:07.600Z,92556.27
2018-02-01T12:10:34.218Z,92551.61
2018-02-01T12:13:00.847Z,92561.80
2018-02-01T12:15:27.380Z,92558.30
2018-02-01T12:17:53.932Z,92559.76
2018-02-01T12:20:20.493Z,92560.19
2018-02-01T12:22:47.051Z,92562.55
2018-02-01T12:25:13.669Z,92563.84
2018-02-01T12:27:40.215Z,92559.39
2018-02-01T12:30:06.780Z,92567.48
2018-02-01T12:32:33.332Z,92570.08
2018-02-01T12:34:59.961Z,92578.19
2018-02-01T12:37:26.555Z,92573.72
2018-02-01T12:39:53.050Z,92567.55
2018-02-01T12:42:19.616Z,92563.09
2018-02-01T12:44:46.182Z,92555.19
2018-02-01T12:47:12.786Z,92553.99
2018-02-01T12:49:40.091Z,92552.96
2018-02-01T12:52:06.635Z,92552.22
2018-02-01T12:54:33.190Z,92561.41
2018-02-01T12:56:59.764Z,92561.39
2018-02-01T12:59:26.430Z,92562.16
2018-02-01T13:01:52.951Z,92573.73
2018-02-01T13:04:19.518Z,92574.37
2018-02-01T13:06:46.051Z,92582.58
2018-02-01T13:09:12.695Z,92567.66
2018-02-01T13:11:39.268Z,92554.27
2018-02-01T13:14:05.806Z,92561.95
2018-02-01T13:16:32.471Z,92562.08
2018-02-01T13:18:59.791Z,92569.34
2018-02-01T13:21:27.086Z,92558.98
2018-02-01T13:23:53.740Z,92545.38
2018-02-01T13:26:20.287Z,92546.79
2018-02-01T13:28:47.806Z,92549.73
2018-02-01T13:31:14.543Z,92551.28
2018-02-01T13:33:41.172Z,92554.11
2018-02-01T13:36:07.876Z,92560.61
2018-02-01T13:38:35.195Z,92557.05
2018-02-01T13:41:01.834Z,92552.80
2018-02-01T13:43:28.382Z,92554.37
2018-02-01T13:45:55.934Z,92560.63
2018-02-01T13:48:22.513Z,92564.08
2018-02-01T13:50:49.922Z,92567.48
2018-02-01T13:53:16.527Z,92567.25
2018-02-01T13:55:43.186Z,92567.59
2018-02-01T13:58:09.720Z,92560.74
2018-02-01T14:00:36.310Z,92562.89
2018-02-01T14:03:02.894Z,92558.68
2018-02-01T14:05:29.526Z,92572.10
2018-02-01T14:07:56.107Z,92563.19
2018-02-01T14:10:23.411Z,92565.36
2018-02-01T14:12:50.042Z,92557.36
2018-02-01T14:15:16.622Z,92555.16
2018-02-01T14:17:43.157Z,92556.72
2018-02-01T14:20:09.832Z,92558.73
2018-02-01T14:22:36.403Z,92555.17
2018-02-01T14:25:02.992Z,92559.78
2018-02-01T14:27:29.547Z,92564.60
2018-02-01T14:29:56.132Z,92570.98
2018-02-01T14:32:22.756Z,92570.63
2018-02-01T14:34:49.350Z,92563.70
2018-02-01T14:37:15.963Z,92571.48
2018-02-01T14:39:42.490Z,92568.97
2018-02-01T14:42:09.064Z,92573.25
2018-02-01T14:44:35.611Z,92571.31
2018-02-01T14:47:02.200Z,92572.18
2018-02-01T14:49:29.674Z,92573.51
2018-02-01T14:51:56.965Z,92576.58
2018-02-01T14:54:23.521Z,92577.23
2018-02-01T14:56:50.085Z,92569.74
2018-02-01T14:59:17.400Z,92574.45
2018-02-01T15:01:43.973Z,92573.64
2018-02-01T15:04:10.528Z,92572.23
2018-02-01T15:06:37.840Z,92570.77
2018-02-01T15:09:04.471Z,92577.19
2018-02-01T15:11:31.018Z,92572.72
2018-02-01T15:13:57.622Z,92583.64
2018-02-01T15:16:24.285Z,92582.28
2018-02-01T15:18:50.807Z,92575.38
2018-02-01T15:21:17.338Z,92573.80
2018-02-01T15:23:43.982Z,92573.62
2018-02-01T15:26:10.550Z,92577.87
2018-02-01T15:28:37.097Z,92579.98
2018-02-01T15:31:04.395Z,92575.14
2018-02-01T15:33:31.047Z,92578.42
2018-02-01T15:35:57.623Z,92577.61
2018-02-01T15:38:24.964Z,92571.77
2018-02-01T15:40:51.536Z,92577.53
2018-02-01T15:43:18.132Z,92579.27
2018-02-01T15:45:44.694Z,92585.47
2018-02-01T15:48:13.097Z,92591.11
2018-02-01T15:50:39.609Z,92583.51
2018-02-01T15:53:06.882Z,92585.92
2018-02-01T15:55:33.551Z,92594.51
2018-02-01T15:58:00.099Z,92589.00
2018-02-01T16:00:26.761Z,92591.41
2018-02-01T16:02:53.314Z,92596.29
2018-02-01T16:05:19.878Z,92594.53
2018-02-01T16:07:46.494Z,92597.38
2018-02-01T16:10:13.078Z,92600.73
2018-02-01T16:12:39.705Z,92602.89
2018-02-01T16:15:06.306Z,92594.75
2018-02-01T16:17:32.920Z,92588.43
2018-02-01T16:20:00.290Z,92600.47
2018-02-01T16:22:27.642Z,92596.31
2018-02-01T16:24:54.222Z,92604.91
2018-02-01T16:27:20.794Z,92604.38
2018-02-01T16:29:47.395Z,92601.55
2018-02-01T16:32:14.045Z,92605.81
2018-02-01T16:34:40.634Z,92606.47
2018-02-01T16:37:07.215Z,92605.27
2018-02-01T16:39:33.795Z,92598.18
2018-02-01T16:42:01.159Z,92603.02
2018-02-01T16:44:27.727Z,92604.47
2018-02-01T16:46:54.299Z,92603.13
2018-02-01T16:49:21.662Z,92614.28
2018-02-01T16:51:49.195Z,92604.33
2018-02-01T16:54:15.762Z,92615.16
2018-02-01T16:56:43.097Z,92616.16
2018-02-01T16:59:09.665Z,92617.00
2018-02-01T17:01:36.245Z,92614.14
2018-02-01T17:04:02.891Z,92619.25
2018-02-01T17:06:29.479Z,92623.17
2018-02-01T17:08:56.058Z,92620.27
2018-02-01T17:11:22.662Z,92627.00
2018-02-01T17:13:49.195Z,92625.78
2018-02-01T17:16:15.741Z,92621.02
2018-02-01T17:18:42.351Z,92613.77
2018-02-01T17:21:09.683Z,92619.27
2018-02-01T17:23:36.266Z,92623.60
2018-02-01T17:26:02.853Z,92619.52
2018-02-01T17:28:29.409Z,92616.16
2018-02-01T17:30:56.740Z,92626.16
2018-02-01T17:33:23.275Z,92630.56
2018-02-01T17:35:50.443Z,92630.03
2018-02-01T17:38:17.817Z,92626.31
2018-02-01T17:40:44.399Z,92634.76
2018-02-01T17:43:10.955Z,92632.91
2018-02-01T17:45:38.309Z,92630.31
2018-02-01T17:48:04.899Z,92630.35
2018-02-01T17:50:31.491Z,92642.23
2018-02-01T17:52:58.795Z,92641.47
2018-02-01T17:55:25.388Z,92640.17
2018-02-01T17:57:51.965Z,92644.14
2018-02-01T18:00:18.575Z,92647.17
2018-02-01T18:02:45.178Z,92646.53
2018-02-01T18:05:11.787Z,92650.05
2018-02-01T18:07:38.362Z,92642.97
2018-02-01T18:10:04.924Z,92652.87
2018-02-01T18:12:31.530Z,92656.95
2018-02-01T18:14:58.122Z,92660.11
2018-02-01T18:17:24.706Z,92663.22
2018-02-01T18:19:52.126Z,92659.66
2018-02-01T18:22:18.714Z,92658.28
2018-02-01T18:24:45.263Z,92661.27
2018-02-01T18:27:11.817Z,92660.95
2018-02-01T18:29:38.416Z,92667.01
2018-02-01T18:32:05.729Z,92668.19
2018-02-01T18:34:32.330Z,92663.38
2018-02-01T18:36:59.043Z,92665.15
2018-02-01T18:39:26.341Z,92670.97
2018-02-01T18:41:53.827Z,92671.61
2018-02-01T18:44:20.376Z,92662.35
2018-02-01T18:46:46.998Z,92668.43
2018-02-01T18:49:13.596Z,92674.01
2018-02-01T18:51:40.270Z,92671.57
2018-02-01T18:54:06.850Z,92672.39
2018-02-01T18:56:33.402Z,92670.27
2018-02-01T18:59:00.012Z,92670.03
2018-02-01T19:01:26.585Z,92662.80
2018-02-01T19:03:53.200Z,92662.23
2018-02-01T19:06:19.771Z,92657.86
2018-02-01T19:08:46.339Z,92655.97
2018-02-01T19:11:12.934Z,92662.11
2018-02-01T19:13:39.482Z,92661.55
2018-02-01T19:16:06.039Z,92664.62
2018-02-01T19:18:32.671Z,92674.88
2018-02-01T19:20:59.273Z,92674.81
2018-02-01T19:23:25.851Z,92671.45
2018-02-01T19:25:52.554Z,92676.84
2018-02-01T19:28:19.127Z,92677.47
2018-02-01T19:30:45.770Z,92677.14
2018-02-01T19:33:12.387Z,92688.97
2018-02-01T19:35:38.950Z,92689.97
2018-02-01T19:38:06.259Z,92689.17
2018-02-01T19:40:32.863Z,92685.13
2018-02-01T19:43:00.174Z,92684.69
2018-02-01T19:45:26.785Z,92688.83
2018-02-01T19:47:54.342Z,92694.89
2018-02-01T19:50:21.036Z,92704.80
2018-02-01T19:52:47.789Z,92704.67
2018-02-01T19:55:14.360Z,92700.26
2018-02-01T19:57:40.962Z,92699.86
2018-02-01T20:00:07.552Z,92706.94
2018-02-01T20:02:34.170Z,92705.84
2018-02-01T20:05:00.727Z,92702.25
2018-02-01T20:07:27.316Z,92705.97
2018-02-01T20:09:53.890Z,92711.87
2018-02-01T20:12:20.505Z,92708.18
2018-02-01T20:14:47.120Z,92713.97
2018-02-01T20:17:14.417Z,92709.33
2018-02-01T20:19:41.025Z,92708.84
2018-02-01T20:22:07.649Z,92706.37
2018-02-01T20:24:34.230Z,92708.09
2018-02-01T20:27:01.632Z,92705.78
2018-02-01T20:29:28.950Z,92711.49
2018-02-01T20:31:55.522Z,92710.61
2018-02-01T20:34:22.897Z,92706.48
2018-02-01T20:36:49.448Z,92713.06
2018-02-01T20:39:16.061Z,92718.02
2018-02-01T20:41:42.619Z,92711.78
2018-02-01T20:44:09.220Z,92709.06
2018-02-01T20:46:36.560Z,92711.09
2018-02-01T20:49:03.134Z,92712.46
2018-02-01T20:51:29.777Z,92717.72
2018-02-01T20:53:56.365Z,92716.95
2018-02-01T20:56:22.996Z,92722.30
2018-02-01T20:58:49.555Z,92727.76
2018-02-01T21:01:16.157Z,92732.58
2018-02-01T21:03:42.794Z,92737.67
2018-02-01T21:06:09.465Z,92738.16
2018-02-01T21:08:36.759Z,92740.69
2018-02-01T21:11:03.373Z,92743.66
2018-02-01T21:13:29.957Z,92754.88
2018-02-01T21:15:56.605Z,92750.84
2018-02-01T21:18:23.167Z,92739.78
2018-02-01T21:20:49.995Z,92738.05
2018-02-01T21:23:16.555Z,92735.33
2018-02-01T21:25:43.878Z,92739.02
2018-02-01T21:28:11.491Z,92742.17
2018-02-01T21:30:38.076Z,92747.00
2018-02-01T21:33:04.650Z,92740.00
2018-02-01T21:35:31.288Z,92735.63
2018-02-01T21:37:57.880Z,92734.52
2018-02-01T21:40:24.500Z,92738.19
2018-02-01T21:42:51.094Z,92732.98
2018-02-01T21:45:17.610Z,92742.30
2018-02-01T21:47:44.953Z,92744.78
2018-02-01T21:50:12.536Z,92747.27
2018-02-01T21:52:39.202Z,92750.98
2018-02-01T21:55:05.818Z,92751.32
2018-02-01T21:57:32.479Z,92756.09
2018-02-01T21:59:59.802Z,92750.88
2018-02-01T22:02:26.616Z,92747.55
2018-02-01T22:04:53.202Z,92748.11
2018-02-01T22:07:23.790Z,92744.88
2018-02-01T22:09:52.161Z,92748.02
2018-02-01T22:12:19.711Z,92749.65
2018-02-01T22:14:46.920Z,92751.59
2018-02-01T22:17:13.615Z,92748.70
2018-02-01T22:19:40.219Z,92754.43
2018-02-01T22:22:06.850Z,92758.81
2018-02-01T22:24:33.611Z,92765.25
2018-02-01T22:27:02.671Z,92756.03
2018-02-01T22:29:29.278Z,92763.20
2018-02-01T22:31:55.911Z,92770.38
2018-02-01T22:34:22.549Z,92772.54
2018-02-01T22:36:49.138Z,92770.67
2018-02-01T22:39:16.505Z,92767.93
2018-02-01T22:41:43.205Z,92769.29
2018-02-01T22:44:09.807Z,92764.12
2018-02-01T22:46:36.445Z,92769.77
2018-02-01T22:49:03.179Z,92768.80
2018-02-01T22:51:29.867Z,92770.98
2018-02-01T22:53:57.233Z,92772.13
2018-02-01T22:56:23.871Z,92771.41
2018-02-01T22:58:50.596Z,92774.23
2018-02-01T23:01:17.250Z,92766.84
2018-02-01T23:03:43.901Z,92765.31
2018-02-01T23:06:10.572Z,92774.00
2018-02-01T23:08:37.315Z,92775.08
2018-02-01T23:11:04.031Z,92776.59
2018-02-01T23:13:30.654Z,92774.16
2018-02-01T23:15:57.307Z,92781.27
2018-02-01T23:18:23.964Z,92780.30
2018-02-01T23:20:50.574Z,92782.63
2018-02-01T23:23:17.192Z,92776.41
2018-02-01T23:25:43.830Z,92783.50
2018-02-01T23:28:11.202Z,92778.63
2018-02-01T23:30:37.817Z,92781.56
2018-02-01T23:33:04.450Z,92779.08
2018-02-01T23:35:31.057Z,92787.09
2018-02-01T23:37:57.668Z,92784.36
2018-02-01T23:40:25.080Z,92788.48
2018-02-01T23:42:51.717Z,92787.66
2018-02-01T23:45:18.335Z,92785.83
2018-02-01T23:47:44.975Z,92788.01
2018-02-01T23:50:11.620Z,92787.64
2018-02-01T23:52:38.262Z,92790.78
2018-02-01T23:55:04.935Z,92783.78
2018-02-01T23:57:31.529Z,92788.88
2018-02-01T23:59:58.105Z,92795.50
